sensor_id;sensor_type;location;lat;lon;timestamp;P1;P4;P2;P0;N10;N4;N25;N1;N05;TS
78515;SPS30;67815;51.990;5.688;2023-09-19T00:02:06;1.9;1.8;1.7;1.5;;;;1.0;110.0;
78515;SPS30;67815;51.990;5.688;2023-09-19T00:04:36;2.1;2.0;1.9;1.7;;;;1.0;121.0;
78515;SPS30;67815;51.990;5.688;2023-09-19T00:07:07;1.9;1.9;1.8;1.6;;;;1.0;116.0;
78515;SPS30;67815;51.990;5.688;2023-09-19T00:09:37;1.8;1.8;1.7;1.5;;;;1.0;113.0;
78515;SPS30;67815;51.990;5.688;2023-09-19T00:12:07;2.0;2.0;1.9;1.7;;;;1.0;118.0;
78515;SPS30;67815;51.990;5.688;2023-09-19T00:14:40;1.7;1.7;1.6;1.5;;;;1.0;126.0;
78515;SPS30;67815;51.990;5.688;2023-09-19T00:17:12;2.0;1.9;1.9;1.7;;;;1.0;124.0;
78515;SPS30;67815;51.990;5.688;2023-09-19T00:19:43;1.9;1.9;1.9;1.7;;;;1.0;114.0;
78515;SPS30;67815;51.990;5.688;2023-09-19T00:22:13;1.7;1.6;1.6;1.4;;;;1.0;107.0;
78515;SPS30;67815;51.990;5.688;2023-09-19T00:24:46;1.8;1.7;1.7;1.5;;;;1.0;91.0;
78515;SPS30;67815;51.990;5.688;2023-09-19T00:27:16;2.3;2.3;2.2;2.0;;;;1.0;96.0;
78515;SPS30;67815;51.990;5.688;2023-09-19T00:29:46;2.0;2.0;1.9;1.6;;;;1.0;77.0;
78515;SPS30;67815;51.990;5.688;2023-09-19T00:32:15;2.3;2.3;2.2;1.9;;;;1.0;85.0;
78515;SPS30;67815;51.990;5.688;2023-09-19T00:34:47;2.3;2.2;2.1;1.9;;;;1.0;67.0;
78515;SPS30;67815;51.990;5.688;2023-09-19T00:37:17;2.8;2.7;2.6;2.3;;;;1.0;74.0;
78515;SPS30;67815;51.990;5.688;2023-09-19T00:39:47;2.5;2.5;2.3;2.0;;;;1.0;77.0;
78515;SPS30;67815;51.990;5.688;2023-09-19T00:42:19;2.3;2.3;2.1;1.9;;;;1.0;108.0;
78515;SPS30;67815;51.990;5.688;2023-09-19T00:44:49;2.6;2.5;2.3;2.0;;;;1.0;110.0;
78515;SPS30;67815;51.990;5.688;2023-09-19T00:47:21;2.0;1.9;1.8;1.6;;;;1.0;111.0;
78515;SPS30;67815;51.990;5.688;2023-09-19T00:49:52;2.6;2.5;2.4;2.1;;;;1.0;113.0;
78515;SPS30;67815;51.990;5.688;2023-09-19T00:52:23;2.8;2.7;2.5;2.1;;;;1.0;103.0;
78515;SPS30;67815;51.990;5.688;2023-09-19T00:54:54;2.7;2.6;2.4;2.0;;;;1.0;100.0;
78515;SPS30;67815;51.990;5.688;2023-09-19T00:57:24;2.6;2.5;2.3;2.0;;;;1.0;104.0;
78515;SPS30;67815;51.990;5.688;2023-09-19T00:59:53;2.8;2.7;2.4;2.1;;;;1.0;115.0;
78515;SPS30;67815;51.990;5.688;2023-09-19T01:02:26;1.8;1.8;1.6;1.4;;;;1.0;98.0;
78515;SPS30;67815;51.990;5.688;2023-09-19T01:04:58;3.0;2.9;2.6;2.3;;;;1.0;116.0;
78515;SPS30;67815;51.990;5.688;2023-09-19T01:07:31;2.1;2.1;1.9;1.7;;;;1.0;88.0;
78515;SPS30;67815;51.990;5.688;2023-09-19T01:10:03;2.7;2.7;2.5;2.2;;;;1.0;90.0;
78515;SPS30;67815;51.990;5.688;2023-09-19T01:12:39;2.6;2.5;2.4;2.1;;;;1.0;79.0;
78515;SPS30;67815;51.990;5.688;2023-09-19T01:15:38;2.6;2.5;2.4;2.1;;;;1.0;86.0;
78515;SPS30;67815;51.990;5.688;2023-09-19T01:18:07;2.7;2.6;2.5;2.2;;;;1.0;91.0;
78515;SPS30;67815;51.990;5.688;2023-09-19T01:20:50;2.4;2.3;2.2;1.9;;;;1.0;105.0;
78515;SPS30;67815;51.990;5.688;2023-09-19T01:23:35;1.9;1.8;1.7;1.6;;;;1.0;108.0;
78515;SPS30;67815;51.990;5.688;2023-09-19T01:26:26;3.0;2.9;2.8;2.5;;;;1.0;115.0;
78515;SPS30;67815;51.990;5.688;2023-09-19T01:29:16;3.2;3.1;3.0;2.6;;;;1.0;124.0;
78515;SPS30;67815;51.990;5.688;2023-09-19T01:32:01;3.2;3.2;3.0;2.7;;;;1.0;119.0;
78515;SPS30;67815;51.990;5.688;2023-09-19T01:34:45;3.1;3.0;2.8;2.5;;;;1.0;115.0;
78515;SPS30;67815;51.990;5.688;2023-09-19T01:37:20;2.9;2.8;2.6;2.3;;;;1.0;80.0;
78515;SPS30;67815;51.990;5.688;2023-09-19T01:39:53;2.6;2.5;2.4;2.1;;;;1.0;92.0;
78515;SPS30;67815;51.990;5.688;2023-09-19T01:42:41;2.9;2.8;2.6;2.3;;;;1.0;98.0;
78515;SPS30;67815;51.990;5.688;2023-09-19T01:45:13;3.4;3.3;3.0;2.5;;;;1.0;88.0;
78515;SPS30;67815;51.990;5.688;2023-09-19T01:47:55;3.5;3.4;3.0;2.5;;;;1.0;82.0;
78515;SPS30;67815;51.990;5.688;2023-09-19T01:50:36;3.4;3.3;2.9;2.4;;;;1.0;71.0;
78515;SPS30;67815;51.990;5.688;2023-09-19T01:53:13;3.6;3.5;3.1;2.6;;;;1.0;54.0;
78515;SPS30;67815;51.990;5.688;2023-09-19T01:55:50;3.4;3.3;2.9;2.3;;;;1.0;55.0;
78515;SPS30;67815;51.990;5.688;2023-09-19T01:58:25;3.8;3.6;3.2;2.5;;;;1.0;61.0;
78515;SPS30;67815;51.990;5.688;2023-09-19T02:01:02;3.5;3.4;3.0;2.4;;;;1.0;62.0;
78515;SPS30;67815;51.990;5.688;2023-09-19T02:03:37;3.5;3.4;3.0;2.4;;;;1.0;63.0;
78515;SPS30;67815;51.990;5.688;2023-09-19T02:06:08;3.7;3.5;3.0;2.4;;;;1.0;49.0;
78515;SPS30;67815;51.990;5.688;2023-09-19T02:08:45;3.5;3.3;2.9;2.3;;;;2.0;51.0;
78515;SPS30;67815;51.990;5.688;2023-09-19T02:11:16;3.2;3.0;2.6;2.0;;;;2.0;53.0;
78515;SPS30;67815;51.990;5.688;2023-09-19T02:13:45;3.9;3.7;3.2;2.4;;;;2.0;47.0;
78515;SPS30;67815;51.990;5.688;2023-09-19T02:16:20;3.5;3.2;2.8;2.1;;;;2.0;49.0;
78515;SPS30;67815;51.990;5.688;2023-09-19T02:18:50;4.2;3.9;3.4;2.5;;;;2.0;82.0;
78515;SPS30;67815;51.990;5.688;2023-09-19T02:21:20;4.3;4.0;3.5;2.7;;;;2.0;72.0;
78515;SPS30;67815;51.990;5.688;2023-09-19T02:23:50;3.9;3.6;3.1;2.3;;;;2.0;77.0;
78515;SPS30;67815;51.990;5.688;2023-09-19T02:26:20;3.8;3.6;3.0;2.3;;;;2.0;72.0;
78515;SPS30;67815;51.990;5.688;2023-09-19T02:28:51;4.5;4.2;3.6;2.8;;;;2.0;73.0;
78515;SPS30;67815;51.990;5.688;2023-09-19T02:31:23;4.0;3.8;3.2;2.5;;;;2.0;73.0;
78515;SPS30;67815;51.990;5.688;2023-09-19T02:33:52;3.3;3.2;2.8;2.2;;;;2.0;69.0;
78515;SPS30;67815;51.990;5.688;2023-09-19T02:36:22;3.8;3.6;3.2;2.5;;;;2.0;68.0;
78515;SPS30;67815;51.990;5.688;2023-09-19T02:38:52;4.0;3.8;3.4;2.7;;;;2.0;70.0;
78515;SPS30;67815;51.990;5.688;2023-09-19T02:41:23;3.6;3.4;3.0;2.4;;;;2.0;73.0;
78515;SPS30;67815;51.990;5.688;2023-09-19T02:43:53;3.4;3.2;2.8;2.3;;;;2.0;69.0;
78515;SPS30;67815;51.990;5.688;2023-09-19T02:46:23;3.3;3.1;2.8;2.3;;;;2.0;80.0;
78515;SPS30;67815;51.990;5.688;2023-09-19T02:48:52;3.8;3.6;3.1;2.5;;;;2.0;79.0;
78515;SPS30;67815;51.990;5.688;2023-09-19T02:51:22;3.6;3.4;3.0;2.4;;;;2.0;75.0;
78515;SPS30;67815;51.990;5.688;2023-09-19T02:53:52;3.9;3.7;3.3;2.7;;;;2.0;76.0;
78515;SPS30;67815;51.990;5.688;2023-09-19T02:56:21;3.4;3.3;2.9;2.4;;;;2.0;81.0;
78515;SPS30;67815;51.990;5.688;2023-09-19T02:58:52;2.9;2.8;2.5;2.0;;;;2.0;72.0;
78515;SPS30;67815;51.990;5.688;2023-09-19T03:01:22;4.0;3.8;3.3;2.6;;;;2.0;71.0;
78515;SPS30;67815;51.990;5.688;2023-09-19T03:03:52;4.1;3.8;3.3;2.6;;;;2.0;50.0;
78515;SPS30;67815;51.990;5.688;2023-09-19T03:06:22;4.6;4.3;3.8;3.0;;;;2.0;45.0;
78515;SPS30;67815;51.990;5.688;2023-09-19T03:08:51;4.0;3.8;3.3;2.6;;;;2.0;53.0;
78515;SPS30;67815;51.990;5.688;2023-09-19T03:11:23;3.3;3.1;2.8;2.3;;;;2.0;57.0;
78515;SPS30;67815;51.990;5.688;2023-09-19T03:13:53;3.6;3.4;3.0;2.5;;;;2.0;56.0;
78515;SPS30;67815;51.990;5.688;2023-09-19T03:16:25;4.2;4.0;3.5;2.7;;;;2.0;48.0;
78515;SPS30;67815;51.990;5.688;2023-09-19T03:18:54;4.0;3.8;3.3;2.7;;;;2.0;55.0;
78515;SPS30;67815;51.990;5.688;2023-09-19T03:21:25;4.2;3.9;3.4;2.6;;;;2.0;54.0;
78515;SPS30;67815;51.990;5.688;2023-09-19T03:23:57;4.8;4.4;3.8;2.9;;;;2.0;72.0;
78515;SPS30;67815;51.990;5.688;2023-09-19T03:26:26;3.7;3.5;3.0;2.3;;;;2.0;72.0;
78515;SPS30;67815;51.990;5.688;2023-09-19T03:28:56;4.5;4.2;3.6;2.7;;;;2.0;72.0;
78515;SPS30;67815;51.990;5.688;2023-09-19T03:31:26;3.5;3.3;2.8;2.2;;;;2.0;73.0;
78515;SPS30;67815;51.990;5.688;2023-09-19T03:33:55;4.2;3.9;3.4;2.6;;;;2.0;62.0;
78515;SPS30;67815;51.990;5.688;2023-09-19T03:36:25;3.5;3.3;2.8;2.1;;;;2.0;61.0;
78515;SPS30;67815;51.990;5.688;2023-09-19T03:38:55;4.2;3.9;3.3;2.5;;;;2.0;51.0;
78515;SPS30;67815;51.990;5.688;2023-09-19T03:41:24;4.3;4.0;3.4;2.6;;;;2.0;48.0;
78515;SPS30;67815;51.990;5.688;2023-09-19T03:43:54;3.7;3.5;3.0;2.4;;;;2.0;55.0;
78515;SPS30;67815;51.990;5.688;2023-09-19T03:46:24;3.9;3.6;3.2;2.4;;;;2.0;62.0;
78515;SPS30;67815;51.990;5.688;2023-09-19T03:48:54;3.7;3.4;2.9;2.2;;;;2.0;73.0;
78515;SPS30;67815;51.990;5.688;2023-09-19T03:51:23;5.1;4.7;4.0;3.1;;;;2.0;58.0;
78515;SPS30;67815;51.990;5.688;2023-09-19T03:53:55;3.8;3.6;3.0;2.3;;;;2.0;58.0;
78515;SPS30;67815;51.990;5.688;2023-09-19T03:56:25;3.5;3.2;2.8;2.1;;;;2.0;57.0;
78515;SPS30;67815;51.990;5.688;2023-09-19T03:58:56;3.7;3.5;3.1;2.4;;;;2.0;70.0;
78515;SPS30;67815;51.990;5.688;2023-09-19T04:01:25;3.8;3.6;3.1;2.4;;;;2.0;78.0;
78515;SPS30;67815;51.990;5.688;2023-09-19T04:03:58;4.0;3.7;3.3;2.6;;;;2.0;74.0;
78515;SPS30;67815;51.990;5.688;2023-09-19T04:06:32;3.4;3.2;2.8;2.2;;;;2.0;67.0;
78515;SPS30;67815;51.990;5.688;2023-09-19T04:09:02;3.6;3.4;2.9;2.2;;;;2.0;68.0;
78515;SPS30;67815;51.990;5.688;2023-09-19T04:11:34;3.2;3.0;2.7;2.1;;;;2.0;69.0;
78515;SPS30;67815;51.990;5.688;2023-09-19T04:14:05;3.7;3.5;3.0;2.3;;;;2.0;75.0;
78515;SPS30;67815;51.990;5.688;2023-09-19T04:16:35;3.6;3.4;3.0;2.4;;;;2.0;66.0;
78515;SPS30;67815;51.990;5.688;2023-09-19T04:19:06;3.5;3.3;2.9;2.3;;;;2.0;82.0;
78515;SPS30;67815;51.990;5.688;2023-09-19T04:21:35;3.2;3.0;2.6;2.1;;;;2.0;86.0;
78515;SPS30;67815;51.990;5.688;2023-09-19T04:24:05;4.0;3.7;3.3;2.6;;;;2.0;73.0;
78515;SPS30;67815;51.990;5.688;2023-09-19T04:26:36;4.0;3.8;3.4;2.7;;;;2.0;67.0;
78515;SPS30;67815;51.990;5.688;2023-09-19T04:29:06;3.7;3.5;3.0;2.4;;;;2.0;74.0;
78515;SPS30;67815;51.990;5.688;2023-09-19T04:31:38;3.1;3.0;2.6;2.1;;;;2.0;83.0;
78515;SPS30;67815;51.990;5.688;2023-09-19T04:34:11;3.5;3.3;3.0;2.4;;;;2.0;91.0;
78515;SPS30;67815;51.990;5.688;2023-09-19T04:36:42;3.4;3.3;3.0;2.5;;;;2.0;94.0;
78515;SPS30;67815;51.990;5.688;2023-09-19T04:39:13;3.4;3.3;3.0;2.6;;;;2.0;85.0;
78515;SPS30;67815;51.990;5.688;2023-09-19T04:41:44;3.6;3.5;3.1;2.6;;;;2.0;79.0;
78515;SPS30;67815;51.990;5.688;2023-09-19T04:44:15;3.4;3.3;2.9;2.3;;;;2.0;69.0;
78515;SPS30;67815;51.990;5.688;2023-09-19T04:46:45;2.9;2.8;2.5;2.0;;;;2.0;169.0;
78515;SPS30;67815;51.990;5.688;2023-09-19T04:49:15;3.4;3.3;3.0;2.4;;;;2.0;112.0;
78515;SPS30;67815;51.990;5.688;2023-09-19T04:51:47;3.4;3.2;2.9;2.4;;;;2.0;74.0;
78515;SPS30;67815;51.990;5.688;2023-09-19T04:54:17;3.8;3.6;3.2;2.6;;;;2.0;55.0;
78515;SPS30;67815;51.990;5.688;2023-09-19T04:56:46;3.3;3.2;2.8;2.3;;;;2.0;56.0;
78515;SPS30;67815;51.990;5.688;2023-09-19T04:59:16;3.8;3.6;3.2;2.6;;;;2.0;39.0;
78515;SPS30;67815;51.990;5.688;2023-09-19T05:01:45;3.5;3.3;2.9;2.3;;;;2.0;49.0;
78515;SPS30;67815;51.990;5.688;2023-09-19T05:04:15;3.5;3.3;2.9;2.3;;;;2.0;51.0;
78515;SPS30;67815;51.990;5.688;2023-09-19T05:06:44;3.9;3.7;3.3;2.7;;;;2.0;43.0;
78515;SPS30;67815;51.990;5.688;2023-09-19T05:09:15;3.9;3.7;3.4;2.8;;;;2.0;48.0;
78515;SPS30;67815;51.990;5.688;2023-09-19T05:11:47;4.7;4.5;4.0;3.2;;;;2.0;251.0;
78515;SPS30;67815;51.990;5.688;2023-09-19T05:14:18;3.4;3.2;2.9;2.3;;;;2.0;151.0;
78515;SPS30;67815;51.990;5.688;2023-09-19T05:16:49;3.2;3.0;2.7;2.1;;;;2.0;131.0;
78515;SPS30;67815;51.990;5.688;2023-09-19T05:19:19;3.7;3.5;3.1;2.5;;;;2.0;118.0;
78515;SPS30;67815;51.990;5.688;2023-09-19T05:21:48;3.8;3.6;3.1;2.5;;;;2.0;68.0;
78515;SPS30;67815;51.990;5.688;2023-09-19T05:24:18;3.6;3.4;3.0;2.3;;;;2.0;68.0;
78515;SPS30;67815;51.990;5.688;2023-09-19T05:26:50;3.7;3.4;3.0;2.3;;;;2.0;58.0;
78515;SPS30;67815;51.990;5.688;2023-09-19T05:29:20;3.5;3.3;2.9;2.3;;;;2.0;60.0;
78515;SPS30;67815;51.990;5.688;2023-09-19T05:31:49;3.7;3.5;3.1;2.5;;;;2.0;75.0;
78515;SPS30;67815;51.990;5.688;2023-09-19T05:34:20;3.7;3.5;3.0;2.4;;;;2.0;61.0;
78515;SPS30;67815;51.990;5.688;2023-09-19T05:36:50;4.0;3.8;3.2;2.4;;;;2.0;78.0;
78515;SPS30;67815;51.990;5.688;2023-09-19T05:39:21;3.5;3.3;2.8;2.1;;;;2.0;80.0;
78515;SPS30;67815;51.990;5.688;2023-09-19T05:41:51;3.5;3.3;2.9;2.2;;;;2.0;76.0;
78515;SPS30;67815;51.990;5.688;2023-09-19T05:44:22;3.3;3.1;2.7;2.1;;;;2.0;71.0;
78515;SPS30;67815;51.990;5.688;2023-09-19T05:46:53;3.4;3.2;2.7;2.1;;;;2.0;66.0;
78515;SPS30;67815;51.990;5.688;2023-09-19T05:49:23;3.1;3.0;2.6;2.1;;;;2.0;69.0;
78515;SPS30;67815;51.990;5.688;2023-09-19T05:51:54;3.6;3.4;2.9;2.2;;;;2.0;123.0;
78515;SPS30;67815;51.990;5.688;2023-09-19T05:54:26;3.2;3.0;2.6;2.0;;;;2.0;127.0;
78515;SPS30;67815;51.990;5.688;2023-09-19T05:56:57;3.7;3.5;3.1;2.5;;;;2.0;81.0;
78515;SPS30;67815;51.990;5.688;2023-09-19T05:59:27;3.4;3.2;2.8;2.2;;;;2.0;60.0;
78515;SPS30;67815;51.990;5.688;2023-09-19T06:01:57;4.1;3.9;3.4;2.6;;;;2.0;65.0;
78515;SPS30;67815;51.990;5.688;2023-09-19T06:04:27;3.4;3.2;2.8;2.2;;;;2.0;67.0;
78515;SPS30;67815;51.990;5.688;2023-09-19T06:06:57;3.9;3.7;3.1;2.3;;;;2.0;62.0;
78515;SPS30;67815;51.990;5.688;2023-09-19T06:09:27;3.6;3.4;2.9;2.2;;;;2.0;62.0;
78515;SPS30;67815;51.990;5.688;2023-09-19T06:11:59;4.1;3.8;3.2;2.4;;;;2.0;66.0;
78515;SPS30;67815;51.990;5.688;2023-09-19T06:14:31;3.7;3.5;3.0;2.3;;;;2.0;77.0;
78515;SPS30;67815;51.990;5.688;2023-09-19T06:17:02;4.1;3.9;3.3;2.5;;;;2.0;77.0;
78515;SPS30;67815;51.990;5.688;2023-09-19T06:19:34;4.3;4.0;3.4;2.5;;;;2.0;65.0;
78515;SPS30;67815;51.990;5.688;2023-09-19T06:22:03;3.3;3.1;2.7;2.1;;;;2.0;59.0;
78515;SPS30;67815;51.990;5.688;2023-09-19T06:24:35;4.3;4.1;3.6;2.8;;;;2.0;82.0;
78515;SPS30;67815;51.990;5.688;2023-09-19T06:27:04;3.6;3.3;2.9;2.2;;;;2.0;91.0;
78515;SPS30;67815;51.990;5.688;2023-09-19T06:29:34;4.4;4.1;3.5;2.7;;;;2.0;100.0;
78515;SPS30;67815;51.990;5.688;2023-09-19T06:32:08;3.5;3.3;2.8;2.2;;;;2.0;94.0;
78515;SPS30;67815;51.990;5.688;2023-09-19T06:34:38;3.9;3.7;3.2;2.6;;;;2.0;88.0;
78515;SPS30;67815;51.990;5.688;2023-09-19T06:37:10;3.5;3.4;3.0;2.4;;;;2.0;90.0;
78515;SPS30;67815;51.990;5.688;2023-09-19T06:39:40;2.9;2.8;2.5;2.0;;;;2.0;91.0;
78515;SPS30;67815;51.990;5.688;2023-09-19T06:42:09;4.1;3.8;3.3;2.6;;;;2.0;81.0;
78515;SPS30;67815;51.990;5.688;2023-09-19T06:44:39;4.0;3.7;3.2;2.5;;;;2.0;88.0;
78515;SPS30;67815;51.990;5.688;2023-09-19T06:47:08;3.6;3.4;2.9;2.2;;;;2.0;86.0;
78515;SPS30;67815;51.990;5.688;2023-09-19T06:49:39;3.9;3.6;3.1;2.3;;;;2.0;82.0;
78515;SPS30;67815;51.990;5.688;2023-09-19T06:52:12;3.8;3.6;3.1;2.3;;;;2.0;108.0;
78515;SPS30;67815;51.990;5.688;2023-09-19T06:54:42;5.0;4.6;4.0;3.0;;;;2.0;103.0;
78515;SPS30;67815;51.990;5.688;2023-09-19T06:57:12;3.9;3.7;3.2;2.4;;;;2.0;77.0;
78515;SPS30;67815;51.990;5.688;2023-09-19T06:59:42;3.7;3.4;3.0;2.3;;;;2.0;94.0;
78515;SPS30;67815;51.990;5.688;2023-09-19T07:02:12;4.3;4.0;3.5;2.7;;;;2.0;103.0;
78515;SPS30;67815;51.990;5.688;2023-09-19T07:04:42;3.6;3.4;3.0;2.3;;;;2.0;100.0;
78515;SPS30;67815;51.990;5.688;2023-09-19T07:07:11;4.9;4.6;3.9;3.0;;;;2.0;87.0;
78515;SPS30;67815;51.990;5.688;2023-09-19T07:09:41;3.8;3.5;3.1;2.4;;;;2.0;77.0;
78515;SPS30;67815;51.990;5.688;2023-09-19T07:12:11;4.5;4.2;3.6;2.7;;;;2.0;52.0;
78515;SPS30;67815;51.990;5.688;2023-09-19T07:14:44;4.7;4.4;3.7;2.7;;;;2.0;67.0;
78515;SPS30;67815;51.990;5.688;2023-09-19T07:17:13;3.9;3.6;3.1;2.3;;;;2.0;62.0;
78515;SPS30;67815;51.990;5.688;2023-09-19T07:19:45;4.2;3.9;3.4;2.6;;;;2.0;64.0;
78515;SPS30;67815;51.990;5.688;2023-09-19T07:22:16;4.1;3.9;3.3;2.5;;;;2.0;67.0;
78515;SPS30;67815;51.990;5.688;2023-09-19T07:24:45;4.0;3.7;3.2;2.4;;;;2.0;98.0;
78515;SPS30;67815;51.990;5.688;2023-09-19T07:27:16;5.2;4.9;4.1;3.1;;;;2.0;105.0;
78515;SPS30;67815;51.990;5.688;2023-09-19T07:29:45;3.8;3.6;3.0;2.3;;;;2.0;72.0;
78515;SPS30;67815;51.990;5.688;2023-09-19T07:32:15;4.0;3.8;3.3;2.5;;;;2.0;63.0;
78515;SPS30;67815;51.990;5.688;2023-09-19T07:34:45;4.1;3.8;3.2;2.4;;;;2.0;63.0;
78515;SPS30;67815;51.990;5.688;2023-09-19T07:37:15;5.3;4.9;4.2;3.2;;;;2.0;67.0;
78515;SPS30;67815;51.990;5.688;2023-09-19T07:39:45;4.2;3.9;3.3;2.4;;;;2.0;58.0;
78515;SPS30;67815;51.990;5.688;2023-09-19T07:42:14;4.7;4.4;3.8;2.9;;;;2.0;73.0;
78515;SPS30;67815;51.990;5.688;2023-09-19T07:44:46;4.0;3.7;3.2;2.4;;;;2.0;81.0;
78515;SPS30;67815;51.990;5.688;2023-09-19T07:47:18;4.3;4.0;3.4;2.5;;;;2.0;80.0;
78515;SPS30;67815;51.990;5.688;2023-09-19T07:49:48;4.2;3.9;3.4;2.6;;;;2.0;78.0;
78515;SPS30;67815;51.990;5.688;2023-09-19T07:52:17;4.2;3.9;3.3;2.5;;;;2.0;61.0;
78515;SPS30;67815;51.990;5.688;2023-09-19T07:54:50;4.5;4.2;3.6;2.7;;;;2.0;65.0;
78515;SPS30;67815;51.990;5.688;2023-09-19T07:57:20;4.8;4.5;3.8;2.8;;;;2.0;55.0;
78515;SPS30;67815;51.990;5.688;2023-09-19T07:59:50;4.2;3.9;3.2;2.3;;;;2.0;56.0;
78515;SPS30;67815;51.990;5.688;2023-09-19T08:02:20;3.9;3.6;3.0;2.2;;;;2.0;57.0;
78515;SPS30;67815;51.990;5.688;2023-09-19T08:04:50;4.6;4.2;3.5;2.5;;;;2.0;53.0;
78515;SPS30;67815;51.990;5.688;2023-09-19T08:07:19;4.9;4.5;3.7;2.5;;;;2.0;45.0;
78515;SPS30;67815;51.990;5.688;2023-09-19T08:09:50;5.2;4.8;4.0;2.8;;;;2.0;58.0;
78515;SPS30;67815;51.990;5.688;2023-09-19T08:12:21;4.2;3.9;3.2;2.3;;;;2.0;80.0;
78515;SPS30;67815;51.990;5.688;2023-09-19T08:14:52;5.0;4.6;3.8;2.6;;;;2.0;45.0;
78515;SPS30;67815;51.990;5.688;2023-09-19T08:17:22;5.2;4.7;3.9;2.6;;;;2.0;46.0;
78515;SPS30;67815;51.990;5.688;2023-09-19T08:19:52;4.8;4.4;3.6;2.5;;;;2.0;44.0;
78515;SPS30;67815;51.990;5.688;2023-09-19T08:22:21;4.8;4.4;3.6;2.6;;;;2.0;45.0;
78515;SPS30;67815;51.990;5.688;2023-09-19T08:24:51;4.4;4.1;3.4;2.5;;;;2.0;51.0;
78515;SPS30;67815;51.990;5.688;2023-09-19T08:27:23;4.8;4.4;3.5;2.4;;;;2.0;62.0;
78515;SPS30;67815;51.990;5.688;2023-09-19T08:29:54;5.5;5.1;4.1;2.8;;;;2.0;57.0;
78515;SPS30;67815;51.990;5.688;2023-09-19T08:32:24;4.9;4.5;3.6;2.3;;;;2.0;55.0;
78515;SPS30;67815;51.990;5.688;2023-09-19T08:34:54;5.7;5.2;4.1;2.7;;;;2.0;62.0;
78515;SPS30;67815;51.990;5.688;2023-09-19T08:37:24;5.9;5.5;4.4;3.0;;;;2.0;77.0;
78515;SPS30;67815;51.990;5.688;2023-09-19T08:39:53;5.5;5.0;4.1;2.8;;;;2.0;71.0;
78515;SPS30;67815;51.990;5.688;2023-09-19T08:42:23;5.0;4.6;3.9;2.8;;;;2.0;69.0;
78515;SPS30;67815;51.990;5.688;2023-09-19T08:44:55;4.7;4.3;3.6;2.5;;;;2.0;73.0;
78515;SPS30;67815;51.990;5.688;2023-09-19T08:47:29;4.5;4.2;3.5;2.6;;;;2.0;59.0;
78515;SPS30;67815;51.990;5.688;2023-09-19T08:50:11;4.3;4.0;3.4;2.5;;;;2.0;59.0;
78515;SPS30;67815;51.990;5.688;2023-09-19T08:52:53;4.7;4.3;3.6;2.6;;;;2.0;65.0;
78515;SPS30;67815;51.990;5.688;2023-09-19T08:55:27;6.3;5.8;4.8;3.3;;;;2.0;51.0;
78515;SPS30;67815;51.990;5.688;2023-09-19T08:58:00;4.9;4.6;3.8;2.8;;;;2.0;55.0;
78515;SPS30;67815;51.990;5.688;2023-09-19T09:00:33;4.1;3.8;3.2;2.3;;;;2.0;66.0;
78515;SPS30;67815;51.990;5.688;2023-09-19T09:03:09;5.4;5.0;4.1;2.9;;;;2.0;72.0;
78515;SPS30;67815;51.990;5.688;2023-09-19T09:05:43;5.3;4.9;4.1;3.0;;;;2.0;90.0;
78515;SPS30;67815;51.990;5.688;2023-09-19T09:08:17;4.9;4.6;3.8;2.7;;;;2.0;93.0;
78515;SPS30;67815;51.990;5.688;2023-09-19T09:10:49;4.5;4.1;3.4;2.3;;;;2.0;61.0;
78515;SPS30;67815;51.990;5.688;2023-09-19T09:13:20;5.8;5.4;4.4;3.1;;;;2.0;45.0;
78515;SPS30;67815;51.990;5.688;2023-09-19T09:15:53;5.2;4.7;3.8;2.6;;;;2.0;45.0;
78515;SPS30;67815;51.990;5.688;2023-09-19T09:18:23;4.9;4.6;3.7;2.6;;;;2.0;50.0;
78515;SPS30;67815;51.990;5.688;2023-09-19T09:20:53;4.9;4.6;3.8;2.7;;;;2.0;43.0;
78515;SPS30;67815;51.990;5.688;2023-09-19T09:23:23;4.5;4.1;3.4;2.4;;;;2.0;42.0;
78515;SPS30;67815;51.990;5.688;2023-09-19T09:25:55;4.7;4.3;3.6;2.5;;;;2.0;44.0;
78515;SPS30;67815;51.990;5.688;2023-09-19T09:28:29;5.0;4.7;3.8;2.7;;;;2.0;67.0;
78515;SPS30;67815;51.990;5.688;2023-09-19T09:31:02;4.5;4.2;3.6;2.6;;;;2.0;93.0;
78515;SPS30;67815;51.990;5.688;2023-09-19T09:33:35;3.9;3.6;3.0;2.2;;;;2.0;125.0;
78515;SPS30;67815;51.990;5.688;2023-09-19T09:36:06;3.4;3.2;2.7;2.0;;;;2.0;114.0;
78515;SPS30;67815;51.990;5.688;2023-09-19T09:38:46;4.4;4.1;3.4;2.5;;;;2.0;116.0;
78515;SPS30;67815;51.990;5.688;2023-09-19T09:41:22;3.8;3.6;3.0;2.2;;;;1.0;62.0;
78515;SPS30;67815;51.990;5.688;2023-09-19T09:44:14;3.3;3.1;2.6;1.9;;;;1.0;44.0;
78515;SPS30;67815;51.990;5.688;2023-09-19T09:46:47;4.7;4.4;3.7;2.6;;;;1.0;34.0;
78515;SPS30;67815;51.990;5.688;2023-09-19T09:49:58;5.1;4.7;3.9;2.8;;;;1.0;49.0;
78515;SPS30;67815;51.990;5.688;2023-09-19T09:52:46;4.3;4.0;3.4;2.4;;;;1.0;54.0;
78515;SPS30;67815;51.990;5.688;2023-09-19T09:55:16;4.4;4.1;3.4;2.5;;;;2.0;60.0;
78515;SPS30;67815;51.990;5.688;2023-09-19T09:57:48;4.2;3.9;3.3;2.4;;;;2.0;58.0;
78515;SPS30;67815;51.990;5.688;2023-09-19T10:00:41;4.6;4.3;3.6;2.7;;;;2.0;53.0;
78515;SPS30;67815;51.990;5.688;2023-09-19T10:03:33;5.0;4.6;3.9;2.9;;;;2.0;54.0;
78515;SPS30;67815;51.990;5.688;2023-09-19T10:06:08;5.4;5.1;4.3;3.1;;;;2.0;35.0;
78515;SPS30;67815;51.990;5.688;2023-09-19T10:08:59;4.0;3.8;3.2;2.4;;;;2.0;29.0;
78515;SPS30;67815;51.990;5.688;2023-09-19T10:11:44;4.4;4.1;3.4;2.5;;;;2.0;39.0;
78515;SPS30;67815;51.990;5.688;2023-09-19T10:14:15;5.2;4.8;4.1;3.0;;;;2.0;48.0;
78515;SPS30;67815;51.990;5.688;2023-09-19T10:16:50;4.7;4.4;3.7;2.7;;;;2.0;41.0;
78515;SPS30;67815;51.990;5.688;2023-09-19T10:19:37;4.4;4.1;3.4;2.4;;;;2.0;38.0;
78515;SPS30;67815;51.990;5.688;2023-09-19T10:22:13;4.9;4.5;3.8;2.7;;;;2.0;44.0;
78515;SPS30;67815;51.990;5.688;2023-09-19T10:24:48;4.0;3.7;3.1;2.1;;;;2.0;41.0;
78515;SPS30;67815;51.990;5.688;2023-09-19T10:27:21;4.7;4.3;3.6;2.5;;;;2.0;38.0;
78515;SPS30;67815;51.990;5.688;2023-09-19T10:29:53;3.8;3.6;3.1;2.3;;;;2.0;44.0;
78515;SPS30;67815;51.990;5.688;2023-09-19T10:32:26;3.6;3.4;3.0;2.3;;;;2.0;48.0;
78515;SPS30;67815;51.990;5.688;2023-09-19T10:35:00;3.4;3.3;2.8;2.2;;;;2.0;48.0;
78515;SPS30;67815;51.990;5.688;2023-09-19T10:37:31;4.0;3.8;3.3;2.6;;;;2.0;38.0;
78515;SPS30;67815;51.990;5.688;2023-09-19T10:40:05;3.7;3.4;2.9;2.2;;;;2.0;37.0;
78515;SPS30;67815;51.990;5.688;2023-09-19T10:42:39;4.4;4.1;3.4;2.5;;;;2.0;39.0;
78515;SPS30;67815;51.990;5.688;2023-09-19T10:45:11;3.6;3.3;2.9;2.2;;;;2.0;30.0;
78515;SPS30;67815;51.990;5.688;2023-09-19T10:47:45;4.3;4.0;3.4;2.6;;;;2.0;28.0;
78515;SPS30;67815;51.990;5.688;2023-09-19T10:50:21;3.4;3.2;2.8;2.2;;;;2.0;30.0;
78515;SPS30;67815;51.990;5.688;2023-09-19T10:52:53;3.9;3.6;3.2;2.5;;;;2.0;41.0;
78515;SPS30;67815;51.990;5.688;2023-09-19T10:55:30;3.5;3.3;2.9;2.3;;;;2.0;42.0;
78515;SPS30;67815;51.990;5.688;2023-09-19T10:58:03;3.5;3.3;3.0;2.4;;;;2.0;58.0;
78515;SPS30;67815;51.990;5.688;2023-09-19T11:00:54;2.9;2.8;2.4;1.9;;;;2.0;55.0;
78515;SPS30;67815;51.990;5.688;2023-09-19T11:03:29;3.6;3.4;3.0;2.4;;;;2.0;52.0;
78515;SPS30;67815;51.990;5.688;2023-09-19T11:06:18;3.9;3.7;3.2;2.5;;;;2.0;54.0;
78515;SPS30;67815;51.990;5.688;2023-09-19T11:08:56;3.7;3.4;3.0;2.4;;;;2.0;60.0;
78515;SPS30;67815;51.990;5.688;2023-09-19T11:11:52;4.3;4.0;3.5;2.7;;;;2.0;63.0;
78515;SPS30;67815;51.990;5.688;2023-09-19T11:14:40;3.4;3.2;2.8;2.1;;;;2.0;42.0;
78515;SPS30;67815;51.990;5.688;2023-09-19T11:22:12;3.0;2.8;2.5;2.1;;;;2.0;44.0;
78515;SPS30;67815;51.990;5.688;2023-09-19T11:24:41;3.6;3.4;3.0;2.4;;;;2.0;50.0;
78515;SPS30;67815;51.990;5.688;2023-09-19T11:27:13;4.1;3.8;3.4;2.7;;;;1.0;51.0;
78515;SPS30;67815;51.990;5.688;2023-09-19T11:29:45;3.2;3.1;2.7;2.2;;;;1.0;53.0;
78515;SPS30;67815;51.990;5.688;2023-09-19T11:32:16;3.0;2.8;2.5;2.1;;;;1.0;51.0;
78515;SPS30;67815;51.990;5.688;2023-09-19T11:34:47;2.7;2.6;2.3;1.9;;;;1.0;50.0;
78515;SPS30;67815;51.990;5.688;2023-09-19T11:41:40;3.3;3.1;2.9;2.4;;;;1.0;42.0;
78515;SPS30;67815;51.990;5.688;2023-09-19T11:47:08;3.2;3.0;2.7;2.2;;;;1.0;66.0;
78515;SPS30;67815;51.990;5.688;2023-09-19T11:49:41;3.0;2.8;2.5;2.0;;;;1.0;63.0;
78515;SPS30;67815;51.990;5.688;2023-09-19T11:52:11;3.2;3.0;2.6;1.9;;;;1.0;50.0;
78515;SPS30;67815;51.990;5.688;2023-09-19T11:54:55;2.6;2.5;2.1;1.7;;;;1.0;53.0;
78515;SPS30;67815;51.990;5.688;2023-09-19T11:57:26;3.0;2.8;2.5;1.9;;;;1.0;60.0;
78515;SPS30;67815;51.990;5.688;2023-09-19T11:59:59;3.6;3.4;2.9;2.3;;;;1.0;58.0;
78515;SPS30;67815;51.990;5.688;2023-09-19T12:02:35;3.0;2.8;2.4;1.9;;;;1.0;79.0;
78515;SPS30;67815;51.990;5.688;2023-09-19T12:05:11;3.0;2.8;2.4;1.9;;;;1.0;70.0;
78515;SPS30;67815;51.990;5.688;2023-09-19T12:07:45;3.2;3.0;2.6;2.0;;;;1.0;73.0;
78515;SPS30;67815;51.990;5.688;2023-09-19T12:10:17;2.0;1.9;1.6;1.3;;;;1.0;89.0;
78515;SPS30;67815;51.990;5.688;2023-09-19T12:12:50;4.2;3.9;3.4;2.6;;;;1.0;85.0;
78515;SPS30;67815;51.990;5.688;2023-09-19T12:15:27;3.1;2.9;2.5;1.9;;;;1.0;80.0;
78515;SPS30;67815;51.990;5.688;2023-09-19T12:18:02;2.2;2.1;1.8;1.4;;;;1.0;76.0;
78515;SPS30;67815;51.990;5.688;2023-09-19T12:20:44;2.4;2.3;1.9;1.4;;;;1.0;70.0;
78515;SPS30;67815;51.990;5.688;2023-09-19T12:23:17;2.5;2.3;2.0;1.5;;;;1.0;45.0;
78515;SPS30;67815;51.990;5.688;2023-09-19T12:25:48;2.1;2.0;1.7;1.4;;;;1.0;51.0;
78515;SPS30;67815;51.990;5.688;2023-09-19T12:28:21;2.4;2.3;2.0;1.5;;;;1.0;53.0;
78515;SPS30;67815;51.990;5.688;2023-09-19T12:30:52;2.4;2.3;2.0;1.6;;;;1.0;52.0;
78515;SPS30;67815;51.990;5.688;2023-09-19T12:33:24;3.0;2.8;2.4;1.9;;;;1.0;58.0;
78515;SPS30;67815;51.990;5.688;2023-09-19T12:35:55;2.2;2.1;1.8;1.4;;;;1.0;59.0;
78515;SPS30;67815;51.990;5.688;2023-09-19T12:38:27;2.4;2.3;2.0;1.6;;;;1.0;53.0;
78515;SPS30;67815;51.990;5.688;2023-09-19T12:40:59;1.8;1.7;1.5;1.2;;;;1.0;84.0;
78515;SPS30;67815;51.990;5.688;2023-09-19T12:43:34;2.4;2.2;1.9;1.5;;;;1.0;79.0;
78515;SPS30;67815;51.990;5.688;2023-09-19T12:46:07;1.9;1.8;1.6;1.2;;;;1.0;92.0;
78515;SPS30;67815;51.990;5.688;2023-09-19T12:48:37;2.1;2.0;1.8;1.5;;;;1.0;86.0;
78515;SPS30;67815;51.990;5.688;2023-09-19T12:51:11;2.1;2.0;1.8;1.5;;;;1.0;77.0;